Time;durP1;ratioP1;P1;durP2;ratioP2;P2;SDS_P1;SDS_P2;PMS_P1;PMS_P2;Temp;Humidity;BMP_temperature;BMP_pressure;BME280_temperature;BME280_humidity;BME280_pressure;Samples;Min_cycle;Max_cycle;Signal;HPM_P1;HPM_P2
2022/03/07 00:01:41;;;;;;;4.95;1.48;;;2.20;99.90;;;;;;5032767;28;20042;-72
2022/03/07 00:04:28;;;;;;;5.18;1.92;;;2.20;99.90;;;;;;5014899;28;20042;-71
2022/03/07 00:06:54;;;;;;;6.82;2.30;;;2.10;99.90;;;;;;5032091;28;20064;-71
2022/03/07 00:09:20;;;;;;;5.45;2.08;;;2.10;99.90;;;;;;5032364;28;20041;-71
2022/03/07 00:11:55;;;;;;;6.03;1.77;;;2.00;99.90;;;;;;5016137;28;20064;-71
2022/03/07 00:14:25;;;;;;;7.15;2.30;;;2.00;99.90;;;;;;5015563;28;20042;-71
2022/03/07 00:17:02;;;;;;;9.63;2.47;;;2.00;99.90;;;;;;5032512;28;20119;-71
2022/03/07 00:19:29;;;;;;;;;;;1.90;99.90;;;;;;5015674;28;20126;-71
2022/03/07 00:21:55;;;;;;;8.50;1.70;;;1.80;99.90;;;;;;5031434;28;20016;-71
2022/03/07 00:24:27;;;;;;;4.40;1.92;;;1.80;99.90;;;;;;5033111;28;20398;-71
2022/03/07 00:26:59;;;;;;;5.65;1.85;;;1.80;99.90;;;;;;5016890;28;20072;-71
2022/03/07 00:29:28;;;;;;;4.47;1.95;;;1.80;99.90;;;;;;5030787;28;20470;-71
2022/03/07 00:31:54;;;;;;;3.60;1.42;;;1.70;99.90;;;;;;5030111;28;20490;-71
2022/03/07 00:34:20;;;;;;;3.25;1.40;;;1.70;99.90;;;;;;5027853;28;20052;-69
2022/03/07 00:36:45;;;;;;;4.30;1.73;;;1.70;99.90;;;;;;5025717;28;20041;-70
2022/03/07 00:39:11;;;;;;;2.13;1.10;;;1.70;99.90;;;;;;5027939;28;20474;-69
2022/03/07 00:41:37;;;;;;;3.90;1.60;;;1.60;99.90;;;;;;5025228;28;20057;-69
2022/03/07 00:44:05;;;;;;;11.50;1.97;;;1.60;99.90;;;;;;5010421;28;20049;-68
2022/03/07 00:46:31;;;;;;;4.32;1.40;;;1.50;99.90;;;;;;5030101;28;20122;-69
2022/03/07 00:48:56;;;;;;;3.97;1.60;;;1.50;99.90;;;;;;5025626;28;20053;-69
2022/03/07 00:51:24;;;;;;;4.57;1.53;;;1.50;99.90;;;;;;5024463;28;20048;-69
2022/03/07 00:53:50;;;;;;;6.75;1.70;;;1.40;99.90;;;;;;4992679;28;20059;-69
2022/03/07 00:56:15;;;;;;;6.50;1.63;;;1.50;99.90;;;;;;5009286;28;20454;-68
2022/03/07 00:58:41;;;;;;;6.83;2.20;;;1.40;99.90;;;;;;5006131;28;20088;-69
2022/03/07 01:01:07;;;;;;;9.27;1.80;;;1.40;99.90;;;;;;5011643;28;20137;-70
2022/03/07 01:03:32;;;;;;;6.63;1.87;;;1.30;99.90;;;;;;5004508;28;20102;-73
2022/03/07 01:05:58;;;;;;;4.50;2.30;;;1.30;99.90;;;;;;5012394;28;20087;-75
2022/03/07 01:08:26;;;;;;;8.50;1.90;;;1.30;99.90;;;;;;5015480;28;20056;-69
2022/03/07 01:10:52;;;;;;;4.60;1.80;;;1.30;99.90;;;;;;5028145;28;20037;-70
2022/03/07 01:13:18;;;;;;;7.88;1.60;;;1.20;99.90;;;;;;5031879;28;20041;-70
2022/03/07 01:15:45;;;;;;;7.40;1.80;;;1.20;99.90;;;;;;5031610;28;20041;-69
2022/03/07 01:18:11;;;;;;;4.78;1.70;;;1.20;99.90;;;;;;5015067;28;20098;-70
2022/03/07 01:20:41;;;;;;;2.63;1.60;;;1.10;99.90;;;;;;5031771;28;20098;-71
2022/03/07 01:23:07;;;;;;;2.60;1.65;;;1.10;99.90;;;;;;5014417;28;20045;-70
2022/03/07 01:25:34;;;;;;;7.20;2.25;;;1.10;99.90;;;;;;5013222;28;20489;-70
2022/03/07 01:28:00;;;;;;;6.30;1.92;;;1.10;99.90;;;;;;5031011;28;20076;-70
2022/03/07 01:30:26;;;;;;;4.57;1.88;;;1.00;99.90;;;;;;5030977;28;20060;-70
2022/03/07 01:32:52;;;;;;;4.93;1.90;;;1.00;99.90;;;;;;5015146;28;20054;-70
2022/03/07 01:35:19;;;;;;;4.43;1.90;;;1.00;99.90;;;;;;4994151;28;20045;-69
2022/03/07 01:37:45;;;;;;;;;;;0.90;99.90;;;;;;5011715;28;20050;-69
2022/03/07 01:40:17;;;;;;;4.32;1.70;;;0.90;99.90;;;;;;5149181;22;19920;-70
2022/03/07 01:42:43;;;;;;;7.00;1.95;;;0.90;99.90;;;;;;5051387;22;20508;-73
2022/03/07 01:45:12;;;;;;;4.15;1.48;;;0.90;99.90;;;;;;5044081;28;20036;-72
2022/03/07 01:47:39;;;;;;;5.38;1.73;;;0.90;99.90;;;;;;5049266;28;20318;-72
2022/03/07 01:50:08;;;;;;;6.45;1.95;;;0.80;99.90;;;;;;5039476;28;20506;-73
2022/03/07 01:52:36;;;;;;;6.72;2.03;;;0.80;99.90;;;;;;5037726;28;20159;-70
2022/03/07 01:55:04;;;;;;;5.32;1.92;;;0.80;99.90;;;;;;5044054;28;20028;-70
2022/03/07 01:57:30;;;;;;;3.03;1.83;;;0.80;99.90;;;;;;4956811;28;20438;-68
2022/03/07 01:59:57;;;;;;;7.35;1.90;;;0.70;99.90;;;;;;4791218;28;20534;-68
2022/03/07 02:02:24;;;;;;;5.43;1.92;;;0.70;99.90;;;;;;4796164;28;20387;-68
2022/03/07 02:04:51;;;;;;;4.30;2.47;;;0.70;99.90;;;;;;4923909;28;20045;-69
2022/03/07 02:07:17;;;;;;;4.38;1.40;;;0.60;99.90;;;;;;5031180;28;20040;-69
2022/03/07 02:09:43;;;;;;;6.00;1.67;;;0.60;99.90;;;;;;5030599;28;20052;-69
2022/03/07 02:12:09;;;;;;;4.68;1.90;;;0.60;99.90;;;;;;5031659;28;20076;-69
2022/03/07 02:14:35;;;;;;;4.50;1.97;;;0.60;99.90;;;;;;5033648;28;20687;-69
2022/03/07 02:17:01;;;;;;;5.70;1.83;;;0.50;99.90;;;;;;5039095;28;20116;-69
2022/03/07 02:19:26;;;;;;;3.50;1.90;;;0.50;99.90;;;;;;5044977;28;20428;-69
2022/03/07 02:22:00;;;;;;;10.03;2.47;;;0.50;99.90;;;;;;5024193;28;20045;-68
2022/03/07 02:24:25;;;;;;;6.93;2.85;;;0.50;99.90;;;;;;5033637;28;20569;-69
2022/03/07 02:27:06;;;;;;;6.70;2.10;;;0.50;99.90;;;;;;5039753;28;20060;-69
2022/03/07 02:29:32;;;;;;;4.93;1.92;;;0.50;99.90;;;;;;5037134;28;20613;-69
2022/03/07 02:31:58;;;;;;;8.35;2.25;;;0.50;99.90;;;;;;5041059;28;20116;-69
2022/03/07 02:34:24;;;;;;;6.20;1.93;;;0.40;99.90;;;;;;5039057;28;20091;-69
2022/03/07 02:36:50;;;;;;;3.58;1.80;;;0.40;99.90;;;;;;5035623;28;20323;-69
2022/03/07 02:39:16;;;;;;;5.75;2.75;;;0.50;99.90;;;;;;5037309;28;20063;-69
2022/03/07 02:41:43;;;;;;;5.70;2.05;;;0.40;99.90;;;;;;5037347;28;20072;-67
2022/03/07 02:44:10;;;;;;;4.20;1.88;;;0.40;99.90;;;;;;5034996;28;20039;-67
2022/03/07 02:46:35;;;;;;;6.78;2.47;;;0.30;99.90;;;;;;5046940;28;20534;-66
2022/03/07 02:49:01;;;;;;;5.07;1.97;;;0.30;99.90;;;;;;5044556;28;20049;-70
2022/03/07 02:51:27;;;;;;;4.47;1.70;;;0.30;99.90;;;;;;5046558;28;20574;-67
2022/03/07 02:53:53;;;;;;;3.23;2.17;;;0.20;99.90;;;;;;5046154;28;20171;-67
2022/03/07 02:56:18;;;;;;;5.30;1.80;;;0.20;99.90;;;;;;5036584;28;20048;-67
2022/03/07 02:58:44;;;;;;;7.13;2.33;;;0.20;99.90;;;;;;5050553;28;20036;-67
2022/03/07 03:01:12;;;;;;;4.13;1.73;;;0.20;99.90;;;;;;5044620;28;20063;-66
2022/03/07 03:03:38;;;;;;;5.93;2.03;;;0.20;99.90;;;;;;5036784;28;20033;-69
2022/03/07 03:06:04;;;;;;;3.13;1.57;;;0.20;99.90;;;;;;5023404;28;20037;-69
2022/03/07 03:08:29;;;;;;;5.97;1.80;;;0.10;99.90;;;;;;5042998;28;20033;-70
2022/03/07 03:10:57;;;;;;;6.43;2.83;;;0.10;99.90;;;;;;5046242;28;20036;-70
2022/03/07 03:13:23;;;;;;;6.30;2.85;;;0.10;99.90;;;;;;5040875;28;20041;-69
2022/03/07 03:15:50;;;;;;;10.55;3.25;;;0.10;99.90;;;;;;5037377;28;20064;-69
2022/03/07 03:18:17;;;;;;;6.82;2.95;;;0.10;99.90;;;;;;5042531;28;20061;-69
2022/03/07 03:20:44;;;;;;;12.90;4.03;;;0.10;99.90;;;;;;5043565;28;20119;-70
2022/03/07 03:23:09;;;;;;;10.07;3.17;;;0.00;99.90;;;;;;5043437;28;22344;-69
2022/03/07 03:25:35;;;;;;;9.60;3.30;;;0.00;99.90;;;;;;5040024;28;20049;-69
2022/03/07 03:28:01;;;;;;;14.10;4.17;;;0.00;99.90;;;;;;5044195;28;20045;-70
2022/03/07 03:30:27;;;;;;;12.18;3.17;;;0.00;99.90;;;;;;5041852;28;20040;-70
2022/03/07 03:32:52;;;;;;;13.67;3.17;;;0.00;99.90;;;;;;5043568;28;20033;-70
2022/03/07 03:35:18;;;;;;;13.23;4.00;;;0.00;99.90;;;;;;5036787;28;20048;-69
2022/03/07 03:37:44;;;;;;;14.87;3.97;;;0.00;99.90;;;;;;5041646;28;20477;-69
2022/03/07 03:40:11;;;;;;;9.27;3.00;;;0.00;99.90;;;;;;5046500;28;20048;-69
2022/03/07 03:42:37;;;;;;;12.88;3.95;;;-0.10;99.90;;;;;;5041192;28;20041;-69
2022/03/07 03:45:08;;;;;;;15.38;4.43;;;0.00;99.90;;;;;;5035310;28;20048;-69
2022/03/07 03:47:35;;;;;;;14.40;4.15;;;-0.10;99.90;;;;;;5042066;28;20041;-70
2022/03/07 03:50:01;;;;;;;10.15;3.50;;;-0.10;99.90;;;;;;5040905;28;20577;-68
2022/03/07 03:52:27;;;;;;;11.60;3.88;;;-0.20;99.90;;;;;;5045124;28;20045;-69
2022/03/07 03:54:55;;;;;;;7.93;3.40;;;-0.20;99.90;;;;;;5042847;28;20040;-70
2022/03/07 03:57:21;;;;;;;11.32;3.33;;;-0.20;99.90;;;;;;5043213;28;20045;-70
2022/03/07 03:59:48;;;;;;;11.07;2.90;;;-0.20;99.90;;;;;;5040248;28;20759;-70
2022/03/07 04:02:13;;;;;;;8.73;2.95;;;-0.20;99.90;;;;;;5040425;28;20550;-69
2022/03/07 04:04:39;;;;;;;6.77;2.47;;;-0.20;99.90;;;;;;5020366;28;23925;-69
2022/03/07 04:07:07;;;;;;;5.17;2.50;;;-0.20;99.90;;;;;;5039205;28;20473;-69
2022/03/07 04:09:33;;;;;;;9.63;2.60;;;-0.20;99.90;;;;;;5038463;28;20509;-69
2022/03/07 04:11:59;;;;;;;10.63;3.42;;;-0.40;99.90;;;;;;5039459;28;20041;-69
2022/03/07 04:14:28;;;;;;;6.47;2.67;;;-0.30;99.90;;;;;;5038287;28;20049;-68
2022/03/07 04:16:54;;;;;;;4.93;2.33;;;-0.30;99.90;;;;;;5043932;28;20101;-70
2022/03/07 04:19:20;;;;;;;10.70;2.88;;;-0.30;99.90;;;;;;5043931;28;20037;-69
2022/03/07 04:21:46;;;;;;;9.13;2.67;;;-0.30;99.90;;;;;;5041445;28;20463;-69
2022/03/07 04:24:12;;;;;;;7.20;2.77;;;-0.30;99.90;;;;;;5042058;28;20033;-70
2022/03/07 04:26:39;;;;;;;5.55;2.95;;;-0.30;99.90;;;;;;5042201;28;20486;-69
2022/03/07 04:29:07;;;;;;;6.85;2.97;;;-0.30;99.90;;;;;;5037536;28;20045;-69
2022/03/07 04:31:35;;;;;;;6.68;2.90;;;-0.30;99.90;;;;;;5044354;28;20037;-69
2022/03/07 04:34:01;;;;;;;13.65;3.55;;;-0.40;99.90;;;;;;5042095;28;20474;-70
2022/03/07 04:36:26;;;;;;;7.43;2.90;;;-0.30;99.90;;;;;;5038465;28;20095;-70
2022/03/07 04:38:52;;;;;;;9.07;3.37;;;-0.40;99.90;;;;;;5045756;28;20087;-70
2022/03/07 04:41:17;;;;;;;9.23;3.57;;;-0.40;99.90;;;;;;5039312;28;20409;-68
2022/03/07 04:43:43;;;;;;;8.13;3.10;;;-0.40;99.90;;;;;;5037715;28;20041;-70
2022/03/07 04:46:09;;;;;;;5.17;2.40;;;-0.40;99.90;;;;;;5034995;28;20128;-69
2022/03/07 04:48:35;;;;;;;9.68;2.95;;;-0.50;99.90;;;;;;5046559;28;20547;-69
2022/03/07 04:51:01;;;;;;;;;;;-0.50;99.90;;;;;;5041074;28;20682;-70
2022/03/07 04:53:27;;;;;;;8.13;2.88;;;-0.40;99.90;;;;;;5046949;28;19994;-69
2022/03/07 04:55:53;;;;;;;12.60;3.10;;;-0.50;99.90;;;;;;5034439;28;20037;-69
2022/03/07 04:58:19;;;;;;;7.47;2.78;;;-0.50;99.90;;;;;;5043241;28;20032;-69
2022/03/07 05:00:47;;;;;;;5.63;2.38;;;-0.50;99.90;;;;;;5036623;28;20041;-69
2022/03/07 05:03:13;;;;;;;8.90;3.17;;;-0.50;99.90;;;;;;5039558;28;20048;-69
2022/03/07 05:05:38;;;;;;;8.17;3.30;;;-0.50;99.90;;;;;;5035353;28;20032;-69
2022/03/07 05:08:04;;;;;;;7.90;3.63;;;-0.50;99.90;;;;;;5046154;28;20120;-70
2022/03/07 05:10:30;;;;;;;5.55;2.63;;;-0.50;99.90;;;;;;5039984;28;20076;-69
2022/03/07 05:12:56;;;;;;;7.83;3.53;;;-0.50;99.90;;;;;;5043795;28;20076;-69
2022/03/07 05:15:22;;;;;;;9.83;3.00;;;-0.50;99.90;;;;;;5044246;28;20524;-69
2022/03/07 05:17:51;;;;;;;7.30;3.07;;;-0.60;99.90;;;;;;5041672;28;20079;-69
2022/03/07 05:20:17;;;;;;;6.63;2.78;;;-0.50;99.90;;;;;;5043143;28;20294;-69
2022/03/07 05:22:44;;;;;;;8.65;3.00;;;-0.60;99.90;;;;;;5044583;28;20033;-69
2022/03/07 05:25:12;;;;;;;;;;;-0.60;99.90;;;;;;5044598;28;20037;-70
2022/03/07 05:27:39;;;;;;;10.35;3.22;;;-0.60;99.90;;;;;;5036101;28;19975;-69
2022/03/07 05:30:09;;;;;;;6.95;3.08;;;-0.60;99.90;;;;;;5039842;28;20121;-69
2022/03/07 05:32:35;;;;;;;11.82;3.10;;;-0.60;99.90;;;;;;5039640;28;20124;-69
2022/03/07 05:35:00;;;;;;;5.13;3.03;;;-0.70;99.90;;;;;;5032107;28;20565;-69
2022/03/07 05:37:26;;;;;;;8.27;3.60;;;-0.60;99.90;;;;;;5037555;28;20065;-70
2022/03/07 05:39:52;;;;;;;11.00;4.13;;;-0.60;99.90;;;;;;5040590;28;20344;-69
2022/03/07 05:42:18;;;;;;;9.57;3.10;;;-0.70;99.90;;;;;;5042346;28;20076;-70
2022/03/07 05:44:43;;;;;;;7.88;2.95;;;-0.60;99.90;;;;;;5034658;28;20530;-69
2022/03/07 05:47:09;;;;;;;8.43;3.03;;;-0.70;99.90;;;;;;5042687;28;20521;-70
2022/03/07 05:49:34;;;;;;;5.77;2.67;;;-0.70;99.90;;;;;;5040372;28;20075;-70
2022/03/07 05:52:00;;;;;;;11.10;3.27;;;-0.70;99.90;;;;;;5042384;28;20037;-69
2022/03/07 05:54:26;;;;;;;7.65;3.30;;;-0.70;99.90;;;;;;5041649;28;20059;-69
2022/03/07 05:56:52;;;;;;;6.40;2.77;;;-0.80;99.90;;;;;;5036864;28;20041;-69
2022/03/07 05:59:20;;;;;;;13.37;3.53;;;-0.70;99.90;;;;;;5040900;28;20043;-68
2022/03/07 06:01:45;;;;;;;5.72;2.80;;;-0.70;99.90;;;;;;5033853;28;20048;-69
2022/03/07 06:04:11;;;;;;;6.17;3.10;;;-0.70;99.90;;;;;;5040584;28;20033;-69
2022/03/07 06:06:36;;;;;;;6.57;3.57;;;-0.80;99.90;;;;;;5042539;28;20128;-69
2022/03/07 06:09:03;;;;;;;6.87;2.80;;;-0.70;99.90;;;;;;5039485;28;20044;-69
2022/03/07 06:11:28;;;;;;;8.98;2.70;;;-0.80;99.90;;;;;;5036946;28;20045;-69
2022/03/07 06:13:54;;;;;;;5.57;2.97;;;-0.80;99.90;;;;;;5040277;28;20041;-69
2022/03/07 06:16:22;;;;;;;6.55;3.60;;;-0.80;99.90;;;;;;5037088;28;20032;-68
2022/03/07 06:18:48;;;;;;;10.20;2.93;;;-0.80;99.90;;;;;;5036985;28;20102;-69
2022/03/07 06:21:13;;;;;;;7.13;2.70;;;-0.80;99.90;;;;;;5043018;28;20041;-69
2022/03/07 06:23:39;;;;;;;6.53;2.97;;;-0.80;99.90;;;;;;5034578;28;20128;-69
2022/03/07 06:26:06;;;;;;;10.25;3.53;;;-0.80;99.90;;;;;;5042009;28;20041;-69
2022/03/07 06:28:32;;;;;;;8.15;3.35;;;-0.80;99.90;;;;;;5038166;28;20267;-69
2022/03/07 06:30:59;;;;;;;6.78;3.50;;;-0.80;99.90;;;;;;5035463;28;20080;-69
2022/03/07 06:33:25;;;;;;;7.28;3.33;;;-0.80;99.90;;;;;;5041385;28;20040;-70
2022/03/07 06:35:50;;;;;;;6.68;3.17;;;-0.80;99.90;;;;;;5038497;28;20037;-70
2022/03/07 06:38:17;;;;;;;7.13;3.77;;;-0.80;99.90;;;;;;5038796;28;20436;-69
2022/03/07 06:40:43;;;;;;;7.97;3.35;;;-0.70;99.90;;;;;;5041505;28;20378;-69
2022/03/07 06:43:09;;;;;;;8.33;2.70;;;-0.70;99.90;;;;;;5038924;28;20029;-69
2022/03/07 06:45:35;;;;;;;13.47;3.40;;;-0.70;99.90;;;;;;5034520;28;20057;-69
2022/03/07 06:48:00;;;;;;;10.13;3.23;;;-0.70;99.90;;;;;;5039624;28;20037;-70
2022/03/07 06:50:26;;;;;;;9.53;3.10;;;-0.70;99.90;;;;;;5037612;28;20332;-70
2022/03/07 06:52:52;;;;;;;9.40;3.70;;;-0.70;99.90;;;;;;5045208;28;20122;-70
2022/03/07 06:55:18;;;;;;;6.22;3.03;;;-0.60;99.90;;;;;;5033699;28;20089;-70
2022/03/07 06:57:44;;;;;;;9.77;3.27;;;-0.60;99.90;;;;;;5014005;28;20148;-70
2022/03/07 07:00:14;;;;;;;7.43;2.80;;;-0.60;99.90;;;;;;5042087;28;20043;-70
2022/03/07 07:02:40;;;;;;;5.78;2.85;;;-0.50;99.90;;;;;;5048952;28;20037;-70
2022/03/07 07:05:07;;;;;;;7.17;2.97;;;-0.50;99.90;;;;;;5051643;28;20549;-70
2022/03/07 07:07:33;;;;;;;;;;;-0.40;99.90;;;;;;5034588;28;20041;-70
2022/03/07 07:09:58;;;;;;;5.68;3.35;;;-0.40;99.90;;;;;;5046571;28;19916;-70
2022/03/07 07:12:24;;;;;;;11.50;3.70;;;-0.30;99.90;;;;;;5040324;28;20074;-70
2022/03/07 07:14:50;;;;;;;9.33;3.93;;;-0.20;99.90;;;;;;5040424;28;20041;-70
2022/03/07 07:17:16;;;;;;;9.27;4.43;;;-0.20;99.90;;;;;;5038584;28;20083;-69
2022/03/07 07:19:42;;;;;;;7.22;3.55;;;-0.20;99.90;;;;;;5037922;28;20048;-70
2022/03/07 07:22:08;;;;;;;10.90;5.03;;;-0.10;99.90;;;;;;5046175;28;20528;-69
2022/03/07 07:24:34;;;;;;;11.00;4.13;;;0.00;99.90;;;;;;5022223;28;20177;-70
2022/03/07 07:26:59;;;;;;;8.43;4.37;;;0.00;99.90;;;;;;5044073;28;20488;-69
2022/03/07 07:29:25;;;;;;;11.53;4.27;;;0.10;99.90;;;;;;5045740;28;20051;-69
2022/03/07 07:31:51;;;;;;;7.82;3.90;;;0.20;99.90;;;;;;5047314;28;20032;-69
2022/03/07 07:34:18;;;;;;;9.85;4.35;;;0.20;99.90;;;;;;5045348;28;20044;-69
2022/03/07 07:36:43;;;;;;;10.65;5.25;;;0.40;99.90;;;;;;5036589;28;20508;-69
2022/03/07 07:39:09;;;;;;;9.37;4.93;;;0.40;99.90;;;;;;5046430;28;20028;-70
2022/03/07 07:41:35;;;;;;;14.47;5.70;;;0.60;99.90;;;;;;5024985;28;20127;-69
2022/03/07 07:44:00;;;;;;;16.07;6.07;;;0.70;99.90;;;;;;5042354;28;20116;-69
2022/03/07 07:46:26;;;;;;;10.17;5.07;;;0.80;99.90;;;;;;5042995;28;20043;-69
2022/03/07 07:48:52;;;;;;;11.90;5.90;;;0.90;99.90;;;;;;5041327;28;20041;-69
2022/03/07 07:51:18;;;;;;;12.13;5.78;;;1.00;99.90;;;;;;5039262;28;20037;-69
2022/03/07 07:53:43;;;;;;;17.73;7.40;;;1.10;99.90;;;;;;5043424;28;20051;-69
2022/03/07 07:56:09;;;;;;;17.83;8.40;;;1.20;99.90;;;;;;5033107;28;20466;-70
2022/03/07 07:58:35;;;;;;;22.07;8.80;;;1.30;99.90;;;;;;5042330;28;20032;-70
2022/03/07 08:01:00;;;;;;;16.70;8.93;;;1.40;99.90;;;;;;5045875;28;20049;-69
2022/03/07 08:03:26;;;;;;;14.50;7.27;;;1.50;99.90;;;;;;5044544;28;20068;-69
2022/03/07 08:05:51;;;;;;;17.67;7.93;;;1.60;99.90;;;;;;5043301;28;20158;-70
2022/03/07 08:08:18;;;;;;;16.97;8.23;;;1.70;99.90;;;;;;5041669;28;20065;-70
2022/03/07 08:10:44;;;;;;;21.40;7.78;;;1.80;99.90;;;;;;5037372;28;20083;-69
2022/03/07 08:13:09;;;;;;;17.43;8.77;;;1.90;99.90;;;;;;5047287;28;20482;-69
2022/03/07 08:15:35;;;;;;;17.97;8.90;;;2.00;99.90;;;;;;5043307;28;20037;-69
2022/03/07 08:18:01;;;;;;;17.33;8.50;;;2.10;99.90;;;;;;5038559;28;20268;-69
2022/03/07 08:20:29;;;;;;;17.97;8.30;;;2.10;99.90;;;;;;5042559;28;20049;-70
2022/03/07 08:22:56;;;;;;;14.95;8.05;;;2.20;99.90;;;;;;5030395;28;20478;-70
2022/03/07 08:25:22;;;;;;;21.05;8.63;;;2.30;99.90;;;;;;5055819;28;20128;-69
2022/03/07 08:27:49;;;;;;;20.73;9.30;;;2.30;99.90;;;;;;5044750;28;20033;-69
2022/03/07 08:30:15;;;;;;;;;;;2.40;99.90;;;;;;5037003;28;20614;-69
2022/03/07 08:32:41;;;;;;;27.50;11.40;;;2.50;99.90;;;;;;5034298;28;19924;-69
2022/03/07 08:35:09;;;;;;;18.95;9.57;;;2.60;99.90;;;;;;5027438;28;20413;-68
2022/03/07 08:37:35;;;;;;;19.15;9.25;;;2.70;99.90;;;;;;5040407;28;20041;-67
2022/03/07 08:40:02;;;;;;;22.35;8.55;;;2.70;99.90;;;;;;5037567;28;20037;-67
2022/03/07 08:42:27;;;;;;;20.33;8.75;;;2.80;99.90;;;;;;5044010;28;20730;-67
2022/03/07 08:44:53;;;;;;;16.97;8.27;;;2.90;99.90;;;;;;5039737;28;20063;-67
2022/03/07 08:47:19;;;;;;;22.60;9.17;;;3.00;99.90;;;;;;5045612;28;20087;-67
2022/03/07 08:49:45;;;;;;;25.70;10.27;;;3.10;99.90;;;;;;5037538;28;20036;-67
2022/03/07 08:52:11;;;;;;;17.30;9.43;;;3.20;99.90;;;;;;5043519;28;20621;-67
2022/03/07 08:54:36;;;;;;;17.63;8.97;;;3.30;99.90;;;;;;5042262;28;20039;-68
2022/03/07 08:57:03;;;;;;;20.57;8.47;;;3.40;99.90;;;;;;5042350;28;20925;-68
2022/03/07 08:59:28;;;;;;;19.70;8.25;;;3.50;99.90;;;;;;5046167;28;20541;-67
2022/03/07 09:01:57;;;;;;;19.33;9.53;;;3.60;99.90;;;;;;5036624;28;20124;-67
2022/03/07 09:04:24;;;;;;;15.77;8.38;;;3.70;99.90;;;;;;5030615;28;20497;-68
2022/03/07 09:06:51;;;;;;;16.58;8.13;;;3.70;99.90;;;;;;5042250;28;20037;-67
2022/03/07 09:09:17;;;;;;;;;;;3.90;99.90;;;;;;5038650;28;20087;-67
2022/03/07 09:11:42;;;;;;;20.17;7.97;;;3.90;99.90;;;;;;5043620;28;20368;-68
2022/03/07 09:14:08;;;;;;;21.37;8.10;;;4.00;99.90;;;;;;5048321;28;20528;-68
2022/03/07 09:16:34;;;;;;;18.23;7.70;;;4.10;99.90;;;;;;5038230;28;20065;-68
2022/03/07 09:18:59;;;;;;;11.83;7.33;;;4.20;99.90;;;;;;5041206;28;20495;-67
2022/03/07 09:21:25;;;;;;;20.30;7.53;;;4.30;99.90;;;;;;5037146;28;20332;-68
2022/03/07 09:23:51;;;;;;;8.13;4.33;;;4.40;99.90;;;;;;5040789;28;20037;-67
2022/03/07 09:26:17;;;;;;;6.23;2.63;;;4.40;99.90;;;;;;5042557;28;20029;-68
2022/03/07 09:28:43;;;;;;;10.27;1.35;;;4.60;99.90;;;;;;5043756;28;20040;-68
2022/03/07 09:31:09;;;;;;;2.35;1.23;;;4.60;99.90;;;;;;5037584;28;20068;-68
2022/03/07 09:33:35;;;;;;;2.75;1.00;;;4.70;99.90;;;;;;5035454;28;20051;-67
2022/03/07 09:36:03;;;;;;;4.00;1.40;;;4.70;99.90;;;;;;5040149;28;20068;-68
2022/03/07 09:38:29;;;;;;;6.35;2.50;;;4.80;99.90;;;;;;5026257;28;20037;-68
2022/03/07 09:40:55;;;;;;;5.23;2.07;;;4.90;99.90;;;;;;5043252;28;20511;-68
2022/03/07 09:43:22;;;;;;;5.97;2.65;;;5.00;99.90;;;;;;5037124;28;20385;-68
2022/03/07 09:45:48;;;;;;;6.15;2.95;;;5.00;99.90;;;;;;5038274;28;20079;-68
2022/03/07 09:48:14;;;;;;;7.07;3.10;;;5.10;99.90;;;;;;5037012;28;20055;-68
2022/03/07 09:50:41;;;;;;;8.53;2.97;;;5.30;99.90;;;;;;5043209;28;20041;-68
2022/03/07 09:53:08;;;;;;;6.90;3.38;;;5.30;99.90;;;;;;5020756;28;20048;-68
2022/03/07 09:55:34;;;;;;;7.85;3.40;;;5.40;99.90;;;;;;5037824;28;20044;-68
2022/03/07 09:57:59;;;;;;;6.47;2.78;;;5.50;99.90;;;;;;5037408;28;20048;-70
2022/03/07 10:00:25;;;;;;;5.97;2.67;;;5.60;99.90;;;;;;5042129;28;20037;-69
2022/03/07 10:03:04;;;;;;;5.90;2.50;;;5.70;99.90;;;;;;5042346;28;20025;-67
2022/03/07 10:05:33;;;;;;;7.03;3.35;;;5.90;99.90;;;;;;5042977;28;20028;-67
2022/03/07 10:07:59;;;;;;;7.80;2.20;;;6.00;99.90;;;;;;5035748;28;20033;-67
2022/03/07 10:10:36;;;;;;;5.20;2.20;;;6.20;99.90;;;;;;5046106;28;20040;-68
2022/03/07 10:13:05;;;;;;;;;;;6.30;99.90;;;;;;5050266;28;20344;-67
2022/03/07 10:15:31;;;;;;;5.28;2.30;;;6.40;99.90;;;;;;5041218;28;19956;-68
2022/03/07 10:17:57;;;;;;;4.45;2.25;;;6.50;99.90;;;;;;5035982;28;20030;-67
2022/03/07 10:20:26;;;;;;;4.37;2.03;;;6.60;99.90;;;;;;5041471;28;20474;-67
2022/03/07 10:22:57;;;;;;;7.90;2.60;;;6.70;99.90;;;;;;5037943;28;20056;-67
2022/03/07 10:25:25;;;;;;;5.28;2.50;;;6.80;99.90;;;;;;5035283;28;20033;-67
2022/03/07 10:27:51;;;;;;;5.72;2.60;;;7.00;99.90;;;;;;5040230;28;20168;-69
2022/03/07 10:30:20;;;;;;;4.30;2.40;;;7.20;99.90;;;;;;5043338;28;20116;-68
2022/03/07 10:32:58;;;;;;;5.85;2.15;;;7.30;99.90;;;;;;5037272;28;20045;-67
2022/03/07 10:35:25;;;;;;;;;;;7.40;99.90;;;;;;5034247;28;20040;-68
2022/03/07 10:37:58;;;;;;;3.85;2.10;;;7.50;99.90;;;;;;5036254;28;19917;-68
2022/03/07 10:40:25;;;;;;;4.72;2.20;;;7.60;99.90;;;;;;5040786;28;20063;-68
2022/03/07 10:42:53;;;;;;;5.20;2.38;;;7.70;99.90;;;;;;5040785;28;20412;-68
2022/03/07 10:45:19;;;;;;;4.53;2.38;;;7.90;99.90;;;;;;5041382;28;20127;-68
2022/03/07 10:47:54;;;;;;;8.27;2.60;;;8.00;99.90;;;;;;5044019;28;20496;-68
2022/03/07 10:50:23;;;;;;;4.72;2.15;;;8.10;99.90;;;;;;5034850;28;20052;-68
2022/03/07 10:52:51;;;;;;;7.45;3.17;;;8.20;99.90;;;;;;5031878;28;20200;-68
2022/03/07 10:55:23;;;;;;;3.38;1.80;;;8.20;99.90;;;;;;5039558;28;20040;-68
2022/03/07 10:57:49;;;;;;;7.13;2.15;;;8.20;99.90;;;;;;5041852;28;20494;-68
2022/03/07 11:00:21;;;;;;;5.20;2.33;;;8.20;99.90;;;;;;5040271;28;20040;-68
2022/03/07 11:02:48;;;;;;;3.97;1.80;;;8.20;99.90;;;;;;5038864;28;20046;-68
2022/03/07 11:05:15;;;;;;;6.30;1.75;;;8.10;99.90;;;;;;5036557;28;20049;-67
2022/03/07 11:07:42;;;;;;;9.25;2.80;;;8.10;99.90;;;;;;5036061;28;20033;-68
2022/03/07 11:10:10;;;;;;;6.68;2.10;;;8.10;99.90;;;;;;5039369;28;20048;-67
2022/03/07 11:12:37;;;;;;;5.60;1.85;;;8.00;99.90;;;;;;5034527;28;20037;-67
2022/03/07 11:15:11;;;;;;;;;;;7.90;99.90;;;;;;5026478;28;20059;-68
2022/03/07 11:17:39;;;;;;;6.43;1.98;;;7.80;99.90;;;;;;5039798;28;20293;-67
2022/03/07 11:20:07;;;;;;;4.43;1.50;;;7.70;99.90;;;;;;5035378;28;20041;-67
2022/03/07 11:22:33;;;;;;;9.10;2.13;;;7.70;99.90;;;;;;5035858;28;20084;-67
2022/03/07 11:25:01;;;;;;;8.30;1.75;;;7.60;99.90;;;;;;5041886;28;20713;-68
2022/03/07 11:27:27;;;;;;;7.75;2.28;;;7.70;99.90;;;;;;5043206;28;20067;-67
2022/03/07 11:29:55;;;;;;;3.58;1.58;;;7.80;99.90;;;;;;5037508;28;20455;-67
2022/03/07 11:32:20;;;;;;;6.53;2.15;;;8.00;99.90;;;;;;5041306;28;20049;-68
2022/03/07 11:35:02;;;;;;;2.93;1.47;;;8.00;99.10;;;;;;5038092;28;20043;-68
2022/03/07 11:37:30;;;;;;;4.22;1.92;;;8.00;97.40;;;;;;5035601;28;20064;-67
2022/03/07 11:39:58;;;;;;;5.80;1.63;;;7.90;97.10;;;;;;5029441;28;20333;-67
2022/03/07 11:42:33;;;;;;;4.28;1.75;;;7.80;96.70;;;;;;5034528;28;20116;-68
2022/03/07 11:45:08;;;;;;;4.20;1.52;;;7.80;96.40;;;;;;5034454;28;20648;-68
2022/03/07 11:47:38;;;;;;;4.07;2.28;;;7.80;97.10;;;;;;5033427;28;20674;-67
2022/03/07 11:50:05;;;;;;;3.08;1.45;;;7.90;95.80;;;;;;5033532;28;20383;-68
2022/03/07 11:52:30;;;;;;;;;;;7.90;95.40;;;;;;5043048;28;20055;-68
2022/03/07 11:55:00;;;;;;;3.72;1.52;;;7.80;89.80;;;;;;5040536;28;19920;-68
2022/03/07 11:57:43;;;;;;;5.68;1.40;;;7.70;93.90;;;;;;5041523;28;20068;-68
2022/03/07 12:00:22;;;;;;;4.82;1.63;;;7.70;94.10;;;;;;5037111;28;20029;-67
2022/03/07 12:02:57;;;;;;;4.75;1.50;;;7.70;94.20;;;;;;5033987;28;20037;-68
2022/03/07 12:05:32;;;;;;;4.78;1.38;;;7.90;94.40;;;;;;5043048;28;20067;-68
2022/03/07 12:08:15;;;;;;;3.47;1.40;;;8.00;93.90;;;;;;5039240;28;20045;-68
2022/03/07 12:10:55;;;;;;;3.13;1.05;;;8.30;93.50;;;;;;5035977;28;20090;-68
2022/03/07 12:13:20;;;;;;;3.10;1.08;;;8.60;92.30;;;;;;5040693;28;20036;-67
2022/03/07 12:15:48;;;;;;;5.53;1.00;;;8.70;87.00;;;;;;5034423;28;20043;-68
2022/03/07 12:18:14;;;;;;;3.00;1.40;;;8.80;84.30;;;;;;5037927;28;20044;-68
2022/03/07 12:20:57;;;;;;;3.83;1.25;;;8.80;83.60;;;;;;5041933;28;20652;-68
2022/03/07 12:23:30;;;;;;;5.72;1.02;;;9.00;82.90;;;;;;5038116;28;20128;-68
2022/03/07 12:26:08;;;;;;;3.45;1.38;;;9.10;82.00;;;;;;5038731;28;20041;-68
2022/03/07 12:28:37;;;;;;;3.72;1.25;;;9.40;81.60;;;;;;5037680;28;20042;-67
2022/03/07 12:31:05;;;;;;;2.30;1.10;;;9.60;80.30;;;;;;5037785;28;20052;-68
2022/03/07 12:33:31;;;;;;;2.25;1.13;;;9.80;75.60;;;;;;5038034;28;20088;-68
2022/03/07 12:36:08;;;;;;;2.67;1.23;;;10.00;77.00;;;;;;5042065;28;20071;-68
2022/03/07 12:38:34;;;;;;;2.40;0.88;;;10.20;74.90;;;;;;5034233;28;20033;-68
2022/03/07 12:41:00;;;;;;;2.08;0.98;;;10.40;72.00;;;;;;5042638;28;20041;-68
2022/03/07 12:43:27;;;;;;;2.35;0.95;;;10.50;69.80;;;;;;5036045;28;20094;-68
2022/03/07 12:45:57;;;;;;;2.53;0.90;;;10.50;68.10;;;;;;5033398;28;20040;-68
2022/03/07 12:48:43;;;;;;;2.80;1.10;;;10.60;67.90;;;;;;5043056;28;20056;-68
2022/03/07 12:51:18;;;;;;;2.07;1.10;;;10.70;67.10;;;;;;5036896;28;20444;-68
2022/03/07 12:54:00;;;;;;;2.47;1.00;;;10.80;67.30;;;;;;5040913;28;20040;-67
2022/03/07 12:56:36;;;;;;;5.32;0.70;;;11.10;67.60;;;;;;5040336;28;20052;-67